Time,TemperatureF,DewpointF,PressureIn,WindDirection,WindDirectionDegrees,WindSpeedMPH,WindSpeedGustMPH,Humidity,HourlyPrecipIn,Conditions,Clouds,dailyrainin,SolarRadiationWatts/m^2,SoftwareType,DateUTC
2013-06-29 00:02:00,90.0,37.7,29.67,East,82,1.0,2.0,16,0.00,,,0.00,0,WeatherCatV1.11B39,2013-06-29 07:02:00,
2013-06-29 00:07:00,89.6,37.4,29.67,East,82,1.0,2.0,16,0.00,,,0.00,0,WeatherCatV1.11B39,2013-06-29 07:07:00,
2013-06-29 00:12:00,89.4,37.3,29.67,East,82,3.0,3.0,16,0.00,,,0.00,0,WeatherCatV1.11B39,2013-06-29 07:12:00,
2013-06-29 00:17:00,89.4,38.8,29.67,East,82,0.0,2.0,17,0.00,,,0.00,0,WeatherCatV1.11B39,2013-06-29 07:17:00,
2013-06-29 00:22:00,89.1,38.6,29.67,East,82,1.0,2.0,17,0.00,,,0.00,0,WeatherCatV1.11B39,2013-06-29 07:22:00,
2013-06-29 00:27:00,88.8,36.8,29.67,East,82,0.0,1.0,16,0.00,,,0.00,0,WeatherCatV1.11B39,2013-06-29 07:27:00,
2013-06-29 00:32:00,88.4,38.0,29.67,East,82,1.0,1.0,17,0.00,,,0.00,0,WeatherCatV1.11B39,2013-06-29 07:32:00,
2013-06-29 00:34:00,88.1,37.8,29.67,East,82,1.0,2.0,17,0.00,,,0.00,0,WeatherCatV1.11B39,2013-06-29 07:34:00,
2013-06-29 00:39:00,87.5,38.7,29.67,East,82,2.0,3.0,18,0.00,,,0.00,0,WeatherCatV1.11B39,2013-06-29 07:39:00,
2013-06-29 00:44:00,87.7,37.5,29.67,East,82,2.0,3.0,17,0.00,,,0.00,0,WeatherCatV1.11B39,2013-06-29 07:44:00,
2013-06-29 00:49:00,87.8,37.5,29.67,East,82,1.0,2.0,17,0.00,,,0.00,0,WeatherCatV1.11B39,2013-06-29 07:49:00,
2013-06-29 00:54:00,87.7,37.5,29.67,East,82,0.0,1.0,17,0.00,,,0.00,0,WeatherCatV1.11B39,2013-06-29 07:54:00,
2013-06-29 00:59:00,87.0,38.3,29.67,East,82,1.0,1.0,18,0.00,,,0.00,0,WeatherCatV1.11B39,2013-06-29 07:59:00,
2013-06-29 01:04:00,86.7,38.1,29.67,East,82,1.0,3.0,18,0.00,,,0.00,0,WeatherCatV1.11B39,2013-06-29 08:04:00,
2013-06-29 01:09:00,86.7,38.1,29.67,East,81,2.0,2.0,18,0.00,,,0.00,0,WeatherCatV1.11B39,2013-06-29 08:09:00,
2013-06-29 01:14:00,87.3,38.6,29.67,East,82,2.0,2.0,18,0.00,,,0.00,0,WeatherCatV1.11B39,2013-06-29 08:14:00,
2013-06-29 01:19:00,87.3,38.6,29.67,East,82,2.0,3.0,18,0.00,,,0.00,0,WeatherCatV1.11B39,2013-06-29 08:19:00,
2013-06-29 01:24:00,87.2,38.5,29.67,East,81,2.0,3.0,18,0.00,,,0.00,0,WeatherCatV1.11B39,2013-06-29 08:24:00,
2013-06-29 01:29:00,86.9,38.3,29.67,East,82,0.0,1.0,18,0.00,,,0.00,0,WeatherCatV1.11B39,2013-06-29 08:29:00,
2013-06-29 01:34:00,86.4,37.9,29.67,East,82,1.0,2.0,18,0.00,,,0.00,0,WeatherCatV1.11B39,2013-06-29 08:34:00,
2013-06-29 01:39:00,86.0,38.9,29.67,East,82,0.0,2.0,19,0.00,,,0.00,0,WeatherCatV1.11B39,2013-06-29 08:39:00,
2013-06-29 01:44:00,85.4,38.4,29.67,East,82,2.0,2.0,19,0.00,,,0.00,0,WeatherCatV1.11B39,2013-06-29 08:44:00,
2013-06-29 01:49:00,84.8,39.2,29.67,East,82,1.0,2.0,20,0.00,,,0.00,0,WeatherCatV1.11B39,2013-06-29 08:49:00,
2013-06-29 01:54:00,84.7,39.2,29.67,East,82,2.0,2.0,20,0.00,,,0.00,0,WeatherCatV1.11B39,2013-06-29 08:54:00,
2013-06-29 01:59:00,84.9,39.3,29.67,East,82,1.0,2.0,20,0.00,,,0.00,0,WeatherCatV1.11B39,2013-06-29 08:59:00,
2013-06-29 02:04:00,85.6,38.6,29.67,East,82,3.0,3.0,19,0.00,,,0.00,0,WeatherCatV1.11B39,2013-06-29 09:04:00,
2013-06-29 02:09:00,86.3,37.8,29.67,SE,132,3.0,7.0,18,0.00,,,0.00,0,WeatherCatV1.11B39,2013-06-29 09:09:00,
2013-06-29 02:14:00,87.5,37.3,29.67,SE,132,3.0,6.0,17,0.00,,,0.00,0,WeatherCatV1.11B39,2013-06-29 09:14:00,
2013-06-29 02:19:00,88.2,37.9,29.67,ESE,117,4.0,6.0,17,0.00,,,0.00,0,WeatherCatV1.11B39,2013-06-29 09:19:00,
2013-06-29 02:24:00,89.2,37.1,29.67,ESE,118,3.0,5.0,16,0.00,,,0.00,0,WeatherCatV1.11B39,2013-06-29 09:24:00,
2013-06-29 02:29:00,89.7,37.5,29.67,SE,125,2.0,3.0,16,0.00,,,0.00,0,WeatherCatV1.11B39,2013-06-29 09:29:00,
2013-06-29 02:34:00,89.7,37.5,29.67,SE,125,0.0,1.0,16,0.00,,,0.00,0,WeatherCatV1.11B39,2013-06-29 09:34:00,
2013-06-29 02:39:00,88.5,38.1,29.67,SE,125,0.0,1.0,17,0.00,,,0.00,0,WeatherCatV1.11B39,2013-06-29 09:39:00,
2013-06-29 02:44:00,87.1,37.0,29.66,SE,125,1.0,2.0,17,0.00,,,0.00,0,WeatherCatV1.11B39,2013-06-29 09:44:00,
2013-06-29 02:49:00,85.6,38.6,29.67,SE,125,0.0,1.0,19,0.00,,,0.00,0,WeatherCatV1.11B39,2013-06-29 09:49:00,
2013-06-29 02:54:00,84.4,38.9,29.67,SE,125,0.0,0.0,20,0.00,,,0.00,0,WeatherCatV1.11B39,2013-06-29 09:54:00,
2013-06-29 02:59:00,83.5,38.2,29.67,SE,125,1.0,2.0,20,0.00,,,0.00,0,WeatherCatV1.11B39,2013-06-29 09:59:00,
2013-06-29 03:04:00,82.6,38.7,29.66,SE,125,2.0,3.0,21,0.00,,,0.00,0,WeatherCatV1.11B39,2013-06-29 10:04:00,
2013-06-29 03:09:00,82.4,38.5,29.67,SE,125,0.0,1.0,21,0.00,,,0.00,0,WeatherCatV1.11B39,2013-06-29 10:09:00,
2013-06-29 03:14:00,82.8,40.0,29.67,SE,125,1.0,2.0,22,0.00,,,0.00,0,WeatherCatV1.11B39,2013-06-29 10:14:00,
2013-06-29 03:19:00,82.6,38.7,29.66,ESE,120,1.0,3.0,21,0.00,,,0.00,0,WeatherCatV1.11B39,2013-06-29 10:19:00,
2013-06-29 03:24:00,82.5,38.6,29.67,ESE,120,0.0,1.0,21,0.00,,,0.00,0,WeatherCatV1.11B39,2013-06-29 10:24:00,
2013-06-29 03:29:00,81.9,38.1,29.67,ESE,120,1.0,2.0,21,0.00,,,0.00,0,WeatherCatV1.11B39,2013-06-29 10:29:00,
2013-06-29 03:34:00,80.7,38.3,29.66,ESE,120,2.0,3.0,22,0.00,,,0.00,0,WeatherCatV1.11B39,2013-06-29 10:34:00,
2013-06-29 03:39:00,80.0,38.9,29.66,ESE,120,1.0,2.0,23,0.00,,,0.00,0,WeatherCatV1.11B39,2013-06-29 10:39:00,
2013-06-29 03:44:00,79.7,39.7,29.67,ESE,120,0.0,2.0,24,0.00,,,0.00,0,WeatherCatV1.11B39,2013-06-29 10:44:00,
2013-06-29 03:49:00,79.7,39.7,29.67,ESE,120,1.0,2.0,24,0.00,,,0.00,0,WeatherCatV1.11B39,2013-06-29 10:49:00,
2013-06-29 03:54:00,79.4,38.4,29.67,ESE,120,0.0,1.0,23,0.00,,,0.00,0,WeatherCatV1.11B39,2013-06-29 10:54:00,
2013-06-29 03:59:00,79.1,39.2,29.67,ESE,120,2.0,3.0,24,0.00,,,0.00,0,WeatherCatV1.11B39,2013-06-29 10:59:00,
2013-06-29 04:04:00,79.1,39.2,29.67,ESE,120,2.0,4.0,24,0.00,,,0.00,0,WeatherCatV1.11B39,2013-06-29 11:04:00,
2013-06-29 04:09:00,79.4,38.4,29.67,ESE,120,0.0,1.0,23,0.00,,,0.00,0,WeatherCatV1.11B39,2013-06-29 11:09:00,
2013-06-29 04:14:00,79.6,38.5,29.67,ESE,120,0.0,2.0,23,0.00,,,0.00,0,WeatherCatV1.11B39,2013-06-29 11:14:00,
2013-06-29 04:19:00,79.5,39.5,29.67,ESE,120,2.0,3.0,24,0.00,,,0.00,0,WeatherCatV1.11B39,2013-06-29 11:19:00,
2013-06-29 04:24:00,79.1,39.2,29.67,ESE,120,0.0,2.0,24,0.00,,,0.00,0,WeatherCatV1.11B39,2013-06-29 11:24:00,
2013-06-29 04:29:00,79.6,39.6,29.67,ESE,118,1.0,2.0,24,0.00,,,0.00,0,WeatherCatV1.11B39,2013-06-29 11:29:00,
2013-06-29 04:34:00,80.2,39.0,29.67,ESE,119,1.0,1.0,23,0.00,,,0.00,0,WeatherCatV1.11B39,2013-06-29 11:34:00,
2013-06-29 04:39:00,79.8,38.7,29.67,ESE,119,1.0,1.0,23,0.00,,,0.00,0,WeatherCatV1.11B39,2013-06-29 11:39:00,
2013-06-29 04:44:00,79.4,39.4,29.67,ESE,119,1.0,2.0,24,0.00,,,0.00,0,WeatherCatV1.11B39,2013-06-29 11:44:00,
2013-06-29 04:49:00,79.2,39.3,29.67,ESE,119,0.0,0.0,24,0.00,,,0.00,0,WeatherCatV1.11B39,2013-06-29 11:49:00,
2013-06-29 04:54:00,78.7,39.9,29.68,SSW,195,2.0,4.0,25,0.00,,,0.00,0,WeatherCatV1.11B39,2013-06-29 11:54:00,
2013-06-29 04:59:00,78.8,38.9,29.68,SSW,195,0.0,2.0,24,0.00,,,0.00,0,WeatherCatV1.11B39,2013-06-29 11:59:00,
2013-06-29 05:04:00,79.5,38.4,29.68,SSW,195,0.0,2.0,23,0.00,,,0.00,0,WeatherCatV1.11B39,2013-06-29 12:04:00,
2013-06-29 05:09:00,79.7,38.6,29.68,SSW,195,1.0,1.0,23,0.00,,,0.00,0,WeatherCatV1.11B39,2013-06-29 12:09:00,
2013-06-29 05:14:00,80.1,38.9,29.68,SSW,195,1.0,1.0,23,0.00,,,0.00,0,WeatherCatV1.11B39,2013-06-29 12:14:00,
2013-06-29 05:19:00,79.5,39.5,29.68,SE,125,2.0,4.0,24,0.00,,,0.00,0,WeatherCatV1.11B39,2013-06-29 12:19:00,
2013-06-29 05:24:00,79.9,39.9,29.68,SE,125,2.0,2.0,24,0.00,,,0.00,0,WeatherCatV1.11B39,2013-06-29 12:24:00,
2013-06-29 05:29:00,80.1,38.9,29.68,SE,124,3.0,3.0,23,0.00,,,0.00,5,WeatherCatV1.11B39,2013-06-29 12:29:00,
2013-06-29 05:34:00,80.5,39.3,29.69,SE,132,0.0,1.0,23,0.00,,,0.00,11,WeatherCatV1.11B39,2013-06-29 12:34:00,
2013-06-29 05:39:00,80.5,39.3,29.69,SE,132,1.0,2.0,23,0.00,,,0.00,16,WeatherCatV1.11B39,2013-06-29 12:39:00,
2013-06-29 05:44:00,80.2,39.0,29.69,SE,130,2.0,2.0,23,0.00,,,0.00,19,WeatherCatV1.11B39,2013-06-29 12:44:00,
2013-06-29 05:49:00,80.8,39.5,29.69,SE,130,1.0,2.0,23,0.00,,,0.00,26,WeatherCatV1.11B39,2013-06-29 12:49:00,
2013-06-29 05:54:00,80.5,40.4,29.69,SE,130,0.0,0.0,24,0.00,,,0.00,33,WeatherCatV1.11B39,2013-06-29 12:54:00,
2013-06-29 05:59:00,80.4,39.2,29.69,SE,130,1.0,3.0,23,0.00,,,0.00,37,WeatherCatV1.11B39,2013-06-29 12:59:00,
2013-06-29 06:04:00,80.8,40.6,29.69,SSE,167,0.0,7.0,24,0.00,,,0.00,44,WeatherCatV1.11B39,2013-06-29 13:04:00,
2013-06-29 06:09:00,81.5,40.1,29.69,SSE,167,0.0,1.0,23,0.00,,,0.00,53,WeatherCatV1.11B39,2013-06-29 13:09:00,
2013-06-29 06:14:00,82.1,41.7,29.69,SSE,167,0.0,1.0,24,0.00,,,0.00,62,WeatherCatV1.11B39,2013-06-29 13:14:00,
2013-06-29 06:19:00,82.2,41.8,29.70,SSE,167,2.0,2.0,24,0.00,,,0.00,70,WeatherCatV1.11B39,2013-06-29 13:19:00,
2013-06-29 06:24:00,82.1,42.8,29.70,SSE,167,1.0,3.0,25,0.00,,,0.00,76,WeatherCatV1.11B39,2013-06-29 13:24:00,
2013-06-29 06:29:00,82.3,41.9,29.70,SSE,167,1.0,4.0,24,0.00,,,0.00,88,WeatherCatV1.11B39,2013-06-29 13:29:00,
2013-06-29 06:34:00,82.9,42.4,29.70,NE,50,2.0,4.0,24,0.00,,,0.00,86,WeatherCatV1.11B39,2013-06-29 13:34:00,
2013-06-29 06:39:00,83.6,41.9,29.70,NE,47,0.0,1.0,23,0.00,,,0.00,102,WeatherCatV1.11B39,2013-06-29 13:39:00,
2013-06-29 06:44:00,84.4,43.6,29.70,NE,47,2.0,2.0,24,0.00,,,0.00,141,WeatherCatV1.11B39,2013-06-29 13:44:00,
2013-06-29 06:49:00,85.2,44.3,29.70,NE,47,2.0,3.0,24,0.00,,,0.00,192,WeatherCatV1.11B39,2013-06-29 13:49:00,
2013-06-29 06:54:00,86.7,44.4,29.70,NE,47,1.0,3.0,23,0.00,,,0.00,207,WeatherCatV1.11B39,2013-06-29 13:54:00,
2013-06-29 06:59:00,87.7,45.3,29.70,SE,138,0.0,2.0,23,0.00,,,0.00,229,WeatherCatV1.11B39,2013-06-29 13:59:00,
2013-06-29 07:04:00,88.5,44.8,29.71,SE,138,2.0,2.0,22,0.00,,,0.00,246,WeatherCatV1.11B39,2013-06-29 14:04:00,
2013-06-29 07:09:00,89.1,44.0,29.70,SE,138,1.0,2.0,21,0.00,,,0.00,287,WeatherCatV1.11B39,2013-06-29 14:09:00,
2013-06-29 07:14:00,90.0,46.0,29.71,SSE,164,5.0,6.0,22,0.00,,,0.00,237,WeatherCatV1.11B39,2013-06-29 14:14:00,
2013-06-29 07:19:00,89.9,45.9,29.70,SSE,163,2.0,2.0,22,0.00,,,0.00,160,WeatherCatV1.11B39,2013-06-29 14:19:00,
2013-06-29 07:24:00,90.0,46.0,29.70,SE,141,2.0,3.0,22,0.00,,,0.00,109,WeatherCatV1.11B39,2013-06-29 14:24:00,
2013-06-29 07:29:00,89.6,45.7,29.71,South,170,1.0,1.0,22,0.00,,,0.00,109,WeatherCatV1.11B39,2013-06-29 14:29:00,
2013-06-29 07:34:00,89.6,43.2,29.71,SE,134,2.0,2.0,20,0.00,,,0.00,121,WeatherCatV1.11B39,2013-06-29 14:34:00,
2013-06-29 07:39:00,90.1,44.9,29.71,SE,134,1.0,2.0,21,0.00,,,0.00,135,WeatherCatV1.11B39,2013-06-29 14:39:00,
2013-06-29 07:44:00,89.6,44.5,29.71,South,173,2.0,3.0,21,0.00,,,0.00,149,WeatherCatV1.11B39,2013-06-29 14:44:00,
2013-06-29 07:49:00,90.1,43.6,29.71,South,173,0.0,1.0,20,0.00,,,0.00,179,WeatherCatV1.11B39,2013-06-29 14:49:00,
2013-06-29 07:55:00,91.0,45.6,29.71,South,173,1.0,1.0,21,0.00,,,0.00,213,WeatherCatV1.11B39,2013-06-29 14:55:00,
2013-06-29 08:00:00,91.6,46.1,29.71,SSE,168,2.0,3.0,21,0.00,,,0.00,236,WeatherCatV1.11B39,2013-06-29 15:00:00,
2013-06-29 08:05:00,92.4,46.8,29.71,SSE,167,2.0,5.0,21,0.00,,,0.00,264,WeatherCatV1.11B39,2013-06-29 15:05:00,
2013-06-29 08:10:00,93.5,45.0,29.70,SSE,168,1.0,2.0,19,0.00,,,0.00,257,WeatherCatV1.11B39,2013-06-29 15:10:00,
2013-06-29 08:15:00,94.5,45.8,29.70,ESE,109,2.0,2.0,19,0.00,,,0.00,250,WeatherCatV1.11B39,2013-06-29 15:15:00,
2013-06-29 08:20:00,96.2,44.3,29.70,ESE,108,2.0,3.0,17,0.00,,,0.00,487,WeatherCatV1.11B39,2013-06-29 15:20:00,
2013-06-29 08:25:00,97.4,45.2,29.70,ESE,108,0.0,1.0,17,0.00,,,0.00,522,WeatherCatV1.11B39,2013-06-29 15:25:00,
2013-06-29 08:30:00,99.1,43.3,29.70,ESE,108,1.0,1.0,15,0.00,,,0.00,496,WeatherCatV1.11B39,2013-06-29 15:30:00,
2013-06-29 08:35:00,99.9,42.1,29.70,ESE,109,0.0,1.0,14,0.00,,,0.00,396,WeatherCatV1.11B39,2013-06-29 15:35:00,
2013-06-29 08:40:00,101.0,43.0,29.70,ESE,109,0.0,2.0,14,0.00,,,0.00,422,WeatherCatV1.11B39,2013-06-29 15:40:00,
2013-06-29 08:45:00,101.4,41.4,29.70,ESE,108,1.0,1.0,13,0.00,,,0.00,605,WeatherCatV1.11B39,2013-06-29 15:45:00,
2013-06-29 08:50:00,102.5,42.2,29.70,ESE,108,1.0,2.0,13,0.00,,,0.00,610,WeatherCatV1.11B39,2013-06-29 15:50:00,
2013-06-29 08:55:00,103.4,42.9,29.69,ESE,108,2.0,3.0,13,0.00,,,0.00,654,WeatherCatV1.11B39,2013-06-29 15:55:00,
2013-06-29 09:00:00,104.4,41.6,29.69,ESE,120,3.0,5.0,12,0.00,,,0.00,661,WeatherCatV1.11B39,2013-06-29 16:00:00,
2013-06-29 09:05:00,103.4,40.8,29.69,ESE,116,1.0,3.0,12,0.00,,,0.00,330,WeatherCatV1.11B39,2013-06-29 16:05:00,
2013-06-29 09:10:00,103.5,40.9,29.69,ESE,117,3.0,3.0,12,0.00,,,0.00,536,WeatherCatV1.11B39,2013-06-29 16:10:00,
2013-06-29 09:15:00,104.2,41.4,29.70,ESE,120,0.0,4.0,12,0.00,,,0.00,649,WeatherCatV1.11B39,2013-06-29 16:15:00,
2013-06-29 09:20:00,104.5,41.7,29.70,ESE,116,2.0,4.0,12,0.00,,,0.00,798,WeatherCatV1.11B39,2013-06-29 16:20:00,
2013-06-29 09:25:00,104.8,41.9,29.69,SE,136,1.0,1.0,12,0.00,,,0.00,455,WeatherCatV1.11B39,2013-06-29 16:25:00,
2013-06-29 09:30:00,104.4,41.6,29.69,SSE,168,4.0,7.0,12,0.00,,,0.00,404,WeatherCatV1.11B39,2013-06-29 16:30:00,
2013-06-29 09:35:00,103.8,41.1,29.69,South,181,3.0,4.0,12,0.00,,,0.00,376,WeatherCatV1.11B39,2013-06-29 16:35:00,
2013-06-29 09:40:00,103.7,41.1,29.69,South,182,1.0,3.0,12,0.00,,,0.00,350,WeatherCatV1.11B39,2013-06-29 16:40:00,
2013-06-29 09:45:00,104.3,41.5,29.69,SSE,162,2.0,4.0,12,0.00,,,0.00,364,WeatherCatV1.11B39,2013-06-29 16:45:00,
2013-06-29 09:50:00,105.1,42.1,29.70,SSE,166,3.0,4.0,12,0.00,,,0.00,373,WeatherCatV1.11B39,2013-06-29 16:50:00,
2013-06-29 09:55:00,104.7,41.8,29.70,SSE,158,2.0,5.0,12,0.00,,,0.00,362,WeatherCatV1.11B39,2013-06-29 16:55:00,
2013-06-29 10:00:00,104.9,42.0,29.70,SSE,156,2.0,3.0,12,0.00,,,0.00,385,WeatherCatV1.11B39,2013-06-29 17:00:00,
2013-06-29 10:05:00,106.0,42.8,29.70,South,191,3.0,9.0,12,0.00,,,0.00,385,WeatherCatV1.11B39,2013-06-29 17:05:00,
2013-06-29 10:10:00,106.0,40.6,29.70,SSW,193,4.0,7.0,11,0.00,,,0.00,858,WeatherCatV1.11B39,2013-06-29 17:10:00,
2013-06-29 10:15:00,106.2,43.0,29.69,SSE,157,6.0,6.0,12,0.00,,,0.00,877,WeatherCatV1.11B39,2013-06-29 17:15:00,
2013-06-29 10:20:00,105.3,40.0,29.69,SSE,164,1.0,3.0,11,0.00,,,0.00,459,WeatherCatV1.11B39,2013-06-29 17:20:00,
2013-06-29 10:25:00,105.2,42.2,29.69,SSE,164,6.0,6.0,12,0.00,,,0.00,459,WeatherCatV1.11B39,2013-06-29 17:25:00,
2013-06-29 10:30:00,105.3,42.3,29.69,SE,134,8.0,9.0,12,0.00,,,0.00,415,WeatherCatV1.11B39,2013-06-29 17:30:00,
2013-06-29 10:35:00,105.2,42.2,29.70,SE,140,5.0,7.0,12,0.00,,,0.00,403,WeatherCatV1.11B39,2013-06-29 17:35:00,
2013-06-29 10:40:00,105.6,42.5,29.69,SE,146,7.0,16.0,12,0.00,,,0.00,1028,WeatherCatV1.11B39,2013-06-29 17:40:00,
2013-06-29 10:45:00,105.4,42.4,29.69,SE,145,9.0,15.0,12,0.00,,,0.00,390,WeatherCatV1.11B39,2013-06-29 17:45:00,
2013-06-29 10:50:00,105.3,42.3,29.69,South,172,4.0,12.0,12,0.00,,,0.00,436,WeatherCatV1.11B39,2013-06-29 17:50:00,
2013-06-29 10:55:00,104.6,41.8,29.69,South,174,4.0,12.0,12,0.00,,,0.00,473,WeatherCatV1.11B39,2013-06-29 17:55:00,
2013-06-29 11:00:00,105.2,42.2,29.69,SSE,166,3.0,7.0,12,0.00,,,0.00,392,WeatherCatV1.11B39,2013-06-29 18:00:00,
2013-06-29 11:05:00,105.7,42.6,29.69,SSE,163,5.0,9.0,12,0.00,,,0.00,1127,WeatherCatV1.11B39,2013-06-29 18:05:00,
2013-06-29 11:10:00,106.7,43.4,29.68,SSW,205,7.0,9.0,12,0.00,,,0.00,536,WeatherCatV1.11B39,2013-06-29 18:10:00,
2013-06-29 11:15:00,107.7,41.9,29.68,SSE,166,11.0,11.0,11,0.00,,,0.00,1155,WeatherCatV1.11B39,2013-06-29 18:15:00,
2013-06-29 11:20:00,107.5,41.7,29.68,SSE,152,9.0,11.0,11,0.00,,,0.00,454,WeatherCatV1.11B39,2013-06-29 18:20:00,
2013-06-29 11:25:00,106.1,42.9,29.68,South,185,7.0,16.0,12,0.00,,,0.00,485,WeatherCatV1.11B39,2013-06-29 18:25:00,
2013-06-29 11:30:00,107.5,44.0,29.68,SSW,211,7.0,13.0,12,0.00,,,0.00,1123,WeatherCatV1.11B39,2013-06-29 18:30:00,
2013-06-29 11:35:00,107.2,43.7,29.68,SW,215,10.0,11.0,12,0.00,,,0.00,468,WeatherCatV1.11B39,2013-06-29 18:35:00,
2013-06-29 11:40:00,106.9,43.5,29.68,SSW,203,8.0,12.0,12,0.00,,,0.00,636,WeatherCatV1.11B39,2013-06-29 18:40:00,
2013-06-29 11:45:00,106.7,43.4,29.68,SSW,205,5.0,7.0,12,0.00,,,0.00,366,WeatherCatV1.11B39,2013-06-29 18:45:00,
2013-06-29 11:50:00,106.7,43.4,29.68,South,180,8.0,13.0,12,0.00,,,0.00,1157,WeatherCatV1.11B39,2013-06-29 18:50:00,
2013-06-29 11:55:00,107.5,44.0,29.68,South,174,2.0,10.0,12,0.00,,,0.00,1229,WeatherCatV1.11B39,2013-06-29 18:55:00,
2013-06-29 12:00:00,108.3,42.3,29.67,South,184,6.0,9.0,11,0.00,,,0.00,663,WeatherCatV1.11B39,2013-06-29 19:00:00,
2013-06-29 12:05:00,106.7,43.4,29.67,SE,146,1.0,5.0,12,0.00,,,0.00,577,WeatherCatV1.11B39,2013-06-29 19:05:00,
2013-06-29 12:10:00,106.5,43.2,29.67,South,184,6.0,8.0,12,0.00,,,0.00,550,WeatherCatV1.11B39,2013-06-29 19:10:00,
2013-06-29 12:15:00,108.4,44.7,29.67,SSW,198,2.0,9.0,12,0.00,,,0.00,686,WeatherCatV1.11B39,2013-06-29 19:15:00,
2013-06-29 12:20:00,108.8,45.0,29.66,SSW,209,7.0,13.0,12,0.00,,,0.00,965,WeatherCatV1.11B39,2013-06-29 19:20:00,
2013-06-29 12:25:00,107.7,44.1,29.66,SSE,151,2.0,5.0,12,0.00,,,0.00,962,WeatherCatV1.11B39,2013-06-29 19:25:00,
2013-06-29 12:30:00,109.0,45.1,29.66,SSW,197,11.0,15.0,12,0.00,,,0.00,991,WeatherCatV1.11B39,2013-06-29 19:30:00,
2013-06-29 12:35:00,108.5,42.5,29.66,South,176,5.0,11.0,11,0.00,,,0.00,972,WeatherCatV1.11B39,2013-06-29 19:35:00,
2013-06-29 12:40:00,108.2,44.5,29.65,South,180,2.0,6.0,12,0.00,,,0.00,991,WeatherCatV1.11B39,2013-06-29 19:40:00,
2013-06-29 12:45:00,108.4,44.7,29.65,East,81,3.0,7.0,12,0.00,,,0.00,1007,WeatherCatV1.11B39,2013-06-29 19:45:00,
2013-06-29 12:50:00,108.7,44.9,29.65,SSW,209,4.0,9.0,12,0.00,,,0.00,1048,WeatherCatV1.11B39,2013-06-29 19:50:00,
2013-06-29 12:55:00,110.4,43.9,29.64,SW,227,5.0,7.0,11,0.00,,,0.00,1037,WeatherCatV1.11B39,2013-06-29 19:55:00,
2013-06-29 13:00:00,109.5,43.2,29.64,WSW,247,8.0,8.0,11,0.00,,,0.00,993,WeatherCatV1.11B39,2013-06-29 20:00:00,
2013-06-29 13:05:00,110.1,43.7,29.64,North,7,4.0,5.0,11,0.00,,,0.00,1035,WeatherCatV1.11B39,2013-06-29 20:05:00,
2013-06-29 13:10:00,108.9,42.8,29.64,NW,321,5.0,7.0,11,0.00,,,0.00,995,WeatherCatV1.11B39,2013-06-29 20:10:00,
2013-06-29 13:15:00,109.5,43.2,29.63,SSW,194,0.0,2.0,11,0.00,,,0.00,983,WeatherCatV1.11B39,2013-06-29 20:15:00,
2013-06-29 13:20:00,107.9,44.3,29.63,SSW,200,2.0,5.0,12,0.00,,,0.00,304,WeatherCatV1.11B39,2013-06-29 20:20:00,
2013-06-29 13:25:00,107.0,43.6,29.63,SW,215,4.0,4.0,12,0.00,,,0.00,288,WeatherCatV1.11B39,2013-06-29 20:25:00,
2013-06-29 13:30:00,107.1,43.7,29.62,West,272,0.0,3.0,12,0.00,,,0.00,302,WeatherCatV1.11B39,2013-06-29 20:30:00,
2013-06-29 13:35:00,108.1,42.2,29.62,West,267,5.0,7.0,11,0.00,,,0.00,392,WeatherCatV1.11B39,2013-06-29 20:35:00,
2013-06-29 13:40:00,109.2,43.0,29.62,SSW,201,2.0,7.0,11,0.00,,,0.00,1009,WeatherCatV1.11B39,2013-06-29 20:40:00,
2013-06-29 13:45:00,108.6,42.5,29.62,SE,146,3.0,4.0,11,0.00,,,0.00,345,WeatherCatV1.11B39,2013-06-29 20:45:00,
2013-06-29 13:50:00,107.7,41.9,29.62,East,84,0.0,2.0,11,0.00,,,0.00,327,WeatherCatV1.11B39,2013-06-29 20:50:00,
2013-06-29 13:55:00,108.2,42.2,29.61,SSW,213,3.0,6.0,11,0.00,,,0.00,541,WeatherCatV1.11B39,2013-06-29 20:55:00,
2013-06-29 14:00:00,108.0,42.1,29.61,SE,135,1.0,8.0,11,0.00,,,0.00,410,WeatherCatV1.11B39,2013-06-29 21:00:00,
2013-06-29 14:05:00,107.9,42.0,29.61,ENE,69,5.0,7.0,11,0.00,,,0.00,315,WeatherCatV1.11B39,2013-06-29 21:05:00,
2013-06-29 14:10:00,108.8,42.7,29.61,East,91,4.0,4.0,11,0.00,,,0.00,346,WeatherCatV1.11B39,2013-06-29 21:10:00,
2013-06-29 14:15:00,108.9,42.8,29.60,SSE,161,4.0,4.0,11,0.00,,,0.00,580,WeatherCatV1.11B39,2013-06-29 21:15:00,
2013-06-29 14:20:00,109.4,43.1,29.60,SSE,166,3.0,10.0,11,0.00,,,0.00,397,WeatherCatV1.11B39,2013-06-29 21:20:00,
2013-06-29 14:25:00,109.5,43.2,29.60,SSW,193,7.0,9.0,11,0.00,,,0.00,397,WeatherCatV1.11B39,2013-06-29 21:25:00,
2013-06-29 14:30:00,110.8,41.7,29.60,South,185,1.0,10.0,10,0.00,,,0.00,1055,WeatherCatV1.11B39,2013-06-29 21:30:00,
2013-06-29 14:35:00,109.6,43.3,29.60,SE,124,2.0,3.0,11,0.00,,,0.00,1053,WeatherCatV1.11B39,2013-06-29 21:35:00,
2013-06-29 14:40:00,109.7,43.4,29.60,SSE,161,5.0,8.0,11,0.00,,,0.00,352,WeatherCatV1.11B39,2013-06-29 21:40:00,
2013-06-29 14:45:00,108.9,42.8,29.60,SSE,168,3.0,13.0,11,0.00,,,0.00,410,WeatherCatV1.11B39,2013-06-29 21:45:00,
2013-06-29 14:50:00,109.0,42.8,29.59,SW,235,5.0,8.0,11,0.00,,,0.00,882,WeatherCatV1.11B39,2013-06-29 21:50:00,
2013-06-29 14:55:00,109.4,43.1,29.59,SSW,213,1.0,5.0,11,0.00,,,0.00,838,WeatherCatV1.11B39,2013-06-29 21:55:00,
2013-06-29 15:00:00,110.4,43.9,29.59,ESE,114,5.0,8.0,11,0.00,,,0.00,267,WeatherCatV1.11B39,2013-06-29 22:00:00,
2013-06-29 15:05:00,109.0,42.8,29.59,SSE,165,8.0,12.0,11,0.00,,,0.00,241,WeatherCatV1.11B39,2013-06-29 22:05:00,
2013-06-29 15:10:00,108.9,42.8,29.58,South,178,7.0,7.0,11,0.00,,,0.00,837,WeatherCatV1.11B39,2013-06-29 22:10:00,
2013-06-29 15:15:00,108.8,42.7,29.58,SSE,156,5.0,10.0,11,0.00,,,0.00,200,WeatherCatV1.11B39,2013-06-29 22:15:00,
2013-06-29 15:20:00,108.2,42.2,29.58,SE,142,3.0,6.0,11,0.00,,,0.00,292,WeatherCatV1.11B39,2013-06-29 22:20:00,
2013-06-29 15:25:00,110.2,41.3,29.58,South,178,4.0,8.0,10,0.00,,,0.00,791,WeatherCatV1.11B39,2013-06-29 22:25:00,
2013-06-29 15:30:00,110.4,41.4,29.58,South,182,5.0,5.0,10,0.00,,,0.00,761,WeatherCatV1.11B39,2013-06-29 22:30:00,
2013-06-29 15:35:00,109.2,40.5,29.57,SE,142,6.0,6.0,10,0.00,,,0.00,751,WeatherCatV1.11B39,2013-06-29 22:35:00,
2013-06-29 15:40:00,109.3,43.1,29.57,SE,141,0.0,1.0,11,0.00,,,0.00,765,WeatherCatV1.11B39,2013-06-29 22:40:00,
2013-06-29 15:45:00,110.0,41.1,29.57,West,276,6.0,6.0,10,0.00,,,0.00,216,WeatherCatV1.11B39,2013-06-29 22:45:00,
2013-06-29 15:50:00,109.3,40.6,29.57,South,188,2.0,3.0,10,0.00,,,0.00,193,WeatherCatV1.11B39,2013-06-29 22:50:00,
2013-06-29 15:55:00,108.0,42.1,29.57,South,179,1.0,2.0,11,0.00,,,0.00,186,WeatherCatV1.11B39,2013-06-29 22:55:00,
2013-06-29 16:00:00,108.2,42.2,29.57,South,176,1.0,2.0,11,0.00,,,0.00,610,WeatherCatV1.11B39,2013-06-29 23:00:00,
2013-06-29 16:05:00,108.1,42.2,29.56,East,90,5.0,8.0,11,0.00,,,0.00,156,WeatherCatV1.11B39,2013-06-29 23:05:00,
2013-06-29 16:10:00,108.0,42.1,29.56,NNE,25,5.0,6.0,11,0.00,,,0.00,200,WeatherCatV1.11B39,2013-06-29 23:10:00,
2013-06-29 16:15:00,109.4,43.1,29.56,NNE,23,4.0,4.0,11,0.00,,,0.00,622,WeatherCatV1.11B39,2013-06-29 23:15:00,
2013-06-29 16:20:00,108.8,42.7,29.56,NNW,330,1.0,1.0,11,0.00,,,0.00,271,WeatherCatV1.11B39,2013-06-29 23:20:00,
2013-06-29 16:25:00,108.2,42.2,29.55,NW,321,7.0,10.0,11,0.00,,,0.00,288,WeatherCatV1.11B39,2013-06-29 23:25:00,
2013-06-29 16:30:00,108.3,42.3,29.55,WNW,294,2.0,6.0,11,0.00,,,0.00,647,WeatherCatV1.11B39,2013-06-29 23:30:00,
2013-06-29 16:35:00,108.9,42.8,29.55,WNW,283,6.0,8.0,11,0.00,,,0.00,223,WeatherCatV1.11B39,2013-06-29 23:35:00,
2013-06-29 16:40:00,107.7,41.9,29.55,WNW,295,4.0,5.0,11,0.00,,,0.00,188,WeatherCatV1.11B39,2013-06-29 23:40:00,
2013-06-29 16:45:00,107.5,41.7,29.55,NW,307,1.0,5.0,11,0.00,,,0.00,149,WeatherCatV1.11B39,2013-06-29 23:45:00,
2013-06-29 16:50:00,107.2,41.5,29.55,NW,309,4.0,6.0,11,0.00,,,0.00,141,WeatherCatV1.11B39,2013-06-29 23:50:00,
2013-06-29 16:55:00,107.1,41.4,29.55,NW,313,7.0,7.0,11,0.00,,,0.00,128,WeatherCatV1.11B39,2013-06-29 23:55:00,
2013-06-29 17:00:00,106.9,41.2,29.55,NW,313,1.0,5.0,11,0.00,,,0.00,81,WeatherCatV1.11B39,2013-06-30 00:00:00,
2013-06-29 17:05:00,106.6,43.3,29.55,NNE,26,3.0,4.0,12,0.00,,,0.00,69,WeatherCatV1.11B39,2013-06-30 00:05:00,
2013-06-29 17:10:00,106.4,43.1,29.55,ENE,59,2.0,9.0,12,0.00,,,0.00,74,WeatherCatV1.11B39,2013-06-30 00:10:00,
2013-06-29 17:15:00,106.0,42.8,29.55,NE,43,11.0,20.0,12,0.00,,,0.00,84,WeatherCatV1.11B39,2013-06-30 00:15:00,
2013-06-29 17:20:00,105.2,42.2,29.55,North,353,13.0,20.0,12,0.00,,,0.00,97,WeatherCatV1.11B39,2013-06-30 00:20:00,
2013-06-29 17:25:00,105.0,42.1,29.55,NNE,26,7.0,12.0,12,0.00,,,0.00,111,WeatherCatV1.11B39,2013-06-30 00:25:00,
2013-06-29 17:30:00,105.0,42.1,29.55,North,9,5.0,10.0,12,0.00,,,0.00,104,WeatherCatV1.11B39,2013-06-30 00:30:00,
2013-06-29 17:35:00,104.8,41.9,29.55,NNW,332,3.0,6.0,12,0.00,,,0.00,100,WeatherCatV1.11B39,2013-06-30 00:35:00,
2013-06-29 17:40:00,104.7,43.9,29.55,NNW,335,4.0,6.0,13,0.00,,,0.00,114,WeatherCatV1.11B39,2013-06-30 00:40:00,
2013-06-29 17:45:00,104.7,43.9,29.55,NNW,343,7.0,7.0,13,0.00,,,0.00,72,WeatherCatV1.11B39,2013-06-30 00:45:00,
2013-06-29 17:50:00,104.6,43.8,29.55,WNW,299,5.0,8.0,13,0.00,,,0.00,72,WeatherCatV1.11B39,2013-06-30 00:50:00,
2013-06-29 17:55:00,104.1,43.5,29.55,WNW,301,7.0,14.0,13,0.00,,,0.00,88,WeatherCatV1.11B39,2013-06-30 00:55:00,
2013-06-29 18:00:00,103.8,43.2,29.55,NW,307,9.0,15.0,13,0.00,,,0.00,114,WeatherCatV1.11B39,2013-06-30 01:00:00,
2013-06-29 18:05:00,104.0,43.4,29.55,NNE,21,5.0,10.0,13,0.00,,,0.00,121,WeatherCatV1.11B39,2013-06-30 01:05:00,
2013-06-29 18:10:00,104.0,45.3,29.55,North,4,8.0,14.0,14,0.00,,,0.00,109,WeatherCatV1.11B39,2013-06-30 01:10:00,
2013-06-29 18:15:00,103.6,45.0,29.55,WNW,299,7.0,14.0,14,0.00,,,0.00,76,WeatherCatV1.11B39,2013-06-30 01:15:00,
2013-06-29 18:20:00,103.4,44.9,29.55,North,1,11.0,13.0,14,0.00,,,0.00,46,WeatherCatV1.11B39,2013-06-30 01:20:00,
2013-06-29 18:25:00,103.0,44.5,29.56,North,359,11.0,15.0,14,0.00,,,0.00,33,WeatherCatV1.11B39,2013-06-30 01:25:00,
2013-06-29 18:30:00,102.6,46.0,29.56,NNE,26,13.0,14.0,15,0.00,,,0.00,25,WeatherCatV1.11B39,2013-06-30 01:30:00,
2013-06-29 18:35:00,101.9,47.2,29.57,NNE,20,7.0,13.0,16,0.00,,,0.00,19,WeatherCatV1.11B39,2013-06-30 01:35:00,
2013-06-29 18:40:00,101.4,46.8,29.59,NW,326,2.0,15.0,16,0.00,,,0.00,18,WeatherCatV1.11B39,2013-06-30 01:40:00,
2013-06-29 18:45:00,100.8,46.3,29.59,ESE,109,4.0,8.0,16,0.00,,,0.00,16,WeatherCatV1.11B39,2013-06-30 01:45:00,
2013-06-29 18:50:00,101.0,46.5,29.60,ESE,122,5.0,9.0,16,0.00,,,0.00,16,WeatherCatV1.11B39,2013-06-30 01:50:00,
2013-06-29 18:55:00,101.0,46.5,29.59,NNE,30,17.0,25.0,16,0.00,,,0.00,14,WeatherCatV1.11B39,2013-06-30 01:55:00,
2013-06-29 19:00:00,100.4,49.1,29.60,NNE,26,18.0,21.0,18,0.00,,,0.00,12,WeatherCatV1.11B39,2013-06-30 02:00:00,
2013-06-29 19:05:00,99.6,48.5,29.60,ENE,76,6.0,24.0,18,0.00,,,0.00,12,WeatherCatV1.11B39,2013-06-30 02:05:00,
2013-06-29 19:10:00,98.9,47.9,29.60,ENE,61,12.0,18.0,18,0.00,,,0.00,14,WeatherCatV1.11B39,2013-06-30 02:10:00,
2013-06-29 19:15:00,98.7,46.3,29.59,North,9,9.0,12.0,17,0.00,,,0.00,14,WeatherCatV1.11B39,2013-06-30 02:15:00,
2013-06-29 19:20:00,99.0,46.5,29.58,NNW,348,9.0,14.0,17,0.00,,,0.00,12,WeatherCatV1.11B39,2013-06-30 02:20:00,
2013-06-29 19:25:00,99.1,46.6,29.58,North,357,15.0,15.0,17,0.00,,,0.00,7,WeatherCatV1.11B39,2013-06-30 02:25:00,
2013-06-29 19:30:00,99.0,46.5,29.58,NW,325,4.0,14.0,17,0.00,,,0.00,0,WeatherCatV1.11B39,2013-06-30 02:30:00,
2013-06-29 19:35:00,98.9,46.4,29.58,North,4,6.0,10.0,17,0.00,,,0.00,0,WeatherCatV1.11B39,2013-06-30 02:35:00,
2013-06-29 19:40:00,98.8,46.3,29.58,NW,326,3.0,11.0,17,0.00,,,0.00,0,WeatherCatV1.11B39,2013-06-30 02:40:00,
2013-06-29 19:45:00,98.7,47.8,29.58,NNW,333,3.0,5.0,18,0.00,,,0.00,0,WeatherCatV1.11B39,2013-06-30 02:45:00,
2013-06-29 19:50:00,98.6,47.7,29.57,NNW,348,3.0,11.0,18,0.00,,,0.00,0,WeatherCatV1.11B39,2013-06-30 02:50:00,
2013-06-29 19:55:00,98.5,47.6,29.57,North,353,9.0,18.0,18,0.00,,,0.00,0,WeatherCatV1.11B39,2013-06-30 02:55:00,
2013-06-29 20:00:00,98.5,46.1,29.57,NNW,338,6.0,11.0,17,0.00,,,0.00,0,WeatherCatV1.11B39,2013-06-30 03:00:00,
2013-06-29 20:05:00,98.6,46.2,29.57,NNE,13,10.0,10.0,17,0.00,,,0.00,0,WeatherCatV1.11B39,2013-06-30 03:05:00,
2013-06-29 20:10:00,98.8,46.3,29.57,NW,317,9.0,12.0,17,0.00,,,0.00,0,WeatherCatV1.11B39,2013-06-30 03:10:00,
2013-06-29 20:15:00,98.9,46.4,29.56,NNE,30,6.0,11.0,17,0.00,,,0.00,0,WeatherCatV1.11B39,2013-06-30 03:15:00,
2013-06-29 20:20:00,99.0,46.5,29.57,NE,35,7.0,7.0,17,0.00,,,0.00,0,WeatherCatV1.11B39,2013-06-30 03:20:00,
2013-06-29 20:25:00,99.1,45.0,29.58,ENE,59,2.0,2.0,16,0.00,,,0.00,0,WeatherCatV1.11B39,2013-06-30 03:25:00,
2013-06-29 20:30:00,98.8,46.3,29.58,ENE,71,1.0,3.0,17,0.00,,,0.00,0,WeatherCatV1.11B39,2013-06-30 03:30:00,
2013-06-29 20:35:00,98.0,47.2,29.58,ENE,71,0.0,1.0,18,0.00,,,0.00,0,WeatherCatV1.11B39,2013-06-30 03:35:00,
2013-06-29 20:40:00,97.4,46.7,29.58,East,80,0.0,3.0,18,0.00,,,0.00,0,WeatherCatV1.11B39,2013-06-30 03:40:00,
2013-06-29 20:45:00,96.8,46.2,29.58,ENE,69,1.0,2.0,18,0.00,,,0.00,0,WeatherCatV1.11B39,2013-06-30 03:45:00,
2013-06-29 20:50:00,96.3,47.3,29.58,ENE,68,2.0,3.0,19,0.00,,,0.00,0,WeatherCatV1.11B39,2013-06-30 03:50:00,
2013-06-29 20:55:00,96.1,47.1,29.58,ENE,69,1.0,2.0,19,0.00,,,0.00,0,WeatherCatV1.11B39,2013-06-30 03:55:00,
2013-06-29 21:00:00,96.0,47.0,29.58,ENE,70,0.0,0.0,19,0.00,,,0.00,0,WeatherCatV1.11B39,2013-06-30 04:00:00,
2013-06-29 21:01:00,95.9,47.0,29.58,ENE,70,0.0,0.0,19,0.00,,,0.00,0,WeatherCatV1.11B39,2013-06-30 04:01:00,
2013-06-29 21:06:00,95.3,47.8,29.58,ENE,70,0.0,0.0,20,0.00,,,0.00,0,WeatherCatV1.11B39,2013-06-30 04:06:00,
2013-06-29 21:11:00,94.6,47.3,29.58,ENE,70,0.0,0.0,20,0.00,,,0.00,0,WeatherCatV1.11B39,2013-06-30 04:11:00,
2013-06-29 21:16:00,94.0,48.1,29.58,ENE,70,1.0,3.0,21,0.00,,,0.00,0,WeatherCatV1.11B39,2013-06-30 04:16:00,
2013-06-29 21:21:00,93.5,47.7,29.58,ENE,70,0.0,0.0,21,0.00,,,0.00,0,WeatherCatV1.11B39,2013-06-30 04:21:00,
2013-06-29 21:26:00,93.3,48.7,29.58,ENE,70,2.0,5.0,22,0.00,,,0.00,0,WeatherCatV1.11B39,2013-06-30 04:26:00,
2013-06-29 21:31:00,93.1,48.6,29.58,ENE,70,2.0,2.0,22,0.00,,,0.00,0,WeatherCatV1.11B39,2013-06-30 04:31:00,
2013-06-29 21:36:00,92.8,48.3,29.58,ENE,70,0.0,1.0,22,0.00,,,0.00,0,WeatherCatV1.11B39,2013-06-30 04:36:00,
2013-06-29 21:41:00,92.4,48.0,29.58,ENE,70,1.0,1.0,22,0.00,,,0.00,0,WeatherCatV1.11B39,2013-06-30 04:41:00,
2013-06-29 21:46:00,92.3,47.9,29.58,ENE,70,0.0,1.0,22,0.00,,,0.00,0,WeatherCatV1.11B39,2013-06-30 04:46:00,
2013-06-29 21:51:00,92.1,47.7,29.59,ENE,70,0.0,2.0,22,0.00,,,0.00,0,WeatherCatV1.11B39,2013-06-30 04:51:00,
2013-06-29 21:56:00,91.9,48.8,29.59,ENE,70,0.0,2.0,23,0.00,,,0.00,0,WeatherCatV1.11B39,2013-06-30 04:56:00,
2013-06-29 22:01:00,91.9,48.8,29.58,ENE,70,1.0,2.0,23,0.00,,,0.00,0,WeatherCatV1.11B39,2013-06-30 05:01:00,
2013-06-29 22:06:00,92.2,47.8,29.58,ENE,70,0.0,0.0,22,0.00,,,0.00,0,WeatherCatV1.11B39,2013-06-30 05:06:00,
2013-06-29 22:11:00,92.1,48.9,29.59,ENE,70,1.0,2.0,23,0.00,,,0.00,0,WeatherCatV1.11B39,2013-06-30 05:11:00,
2013-06-29 22:16:00,91.9,48.8,29.59,ENE,70,1.0,2.0,23,0.00,,,0.00,0,WeatherCatV1.11B39,2013-06-30 05:16:00,
2013-06-29 22:21:00,91.9,47.6,29.59,ENE,70,1.0,1.0,22,0.00,,,0.00,0,WeatherCatV1.11B39,2013-06-30 05:21:00,
2013-06-29 22:26:00,92.0,47.7,29.60,ENE,70,1.0,2.0,22,0.00,,,0.00,0,WeatherCatV1.11B39,2013-06-30 05:26:00,
2013-06-29 22:31:00,92.4,46.8,29.60,ENE,66,5.0,6.0,21,0.00,,,0.00,0,WeatherCatV1.11B39,2013-06-30 05:31:00,
2013-06-29 22:36:00,93.4,46.3,29.60,ENE,57,5.0,5.0,20,0.00,,,0.00,0,WeatherCatV1.11B39,2013-06-30 05:36:00,
2013-06-29 22:41:00,95.2,43.5,29.59,NE,41,1.0,4.0,17,0.00,,,0.00,0,WeatherCatV1.11B39,2013-06-30 05:41:00,
2013-06-29 22:46:00,96.7,44.7,29.59,WNW,301,1.0,3.0,17,0.00,,,0.00,0,WeatherCatV1.11B39,2013-06-30 05:46:00,
2013-06-29 22:51:00,96.8,44.7,29.59,WNW,301,0.0,1.0,17,0.00,,,0.00,0,WeatherCatV1.11B39,2013-06-30 05:51:00,
2013-06-29 22:56:00,96.7,44.7,29.60,NE,51,1.0,3.0,17,0.00,,,0.00,0,WeatherCatV1.11B39,2013-06-30 05:56:00,
2013-06-29 23:01:00,96.3,44.3,29.60,ESE,110,9.0,9.0,17,0.00,,,0.00,0,WeatherCatV1.11B39,2013-06-30 06:01:00,
2013-06-29 23:06:00,96.3,45.8,29.61,East,99,7.0,10.0,18,0.00,,,0.00,0,WeatherCatV1.11B39,2013-06-30 06:06:00,
2013-06-29 23:11:00,96.4,45.9,29.60,ESE,120,1.0,3.0,18,0.00,,,0.00,0,WeatherCatV1.11B39,2013-06-30 06:11:00,
2013-06-29 23:16:00,96.4,45.9,29.60,ESE,118,0.0,2.0,18,0.00,,,0.00,0,WeatherCatV1.11B39,2013-06-30 06:16:00,
2013-06-29 23:21:00,95.7,45.4,29.60,ESE,118,0.0,0.0,18,0.00,,,0.00,0,WeatherCatV1.11B39,2013-06-30 06:21:00,
2013-06-29 23:26:00,94.9,46.1,29.60,South,183,3.0,4.0,19,0.00,,,0.00,0,WeatherCatV1.11B39,2013-06-30 06:26:00,
2013-06-29 23:31:00,94.2,45.6,29.61,WSW,246,4.0,6.0,19,0.00,,,0.00,0,WeatherCatV1.11B39,2013-06-30 06:31:00,
2013-06-29 23:36:00,94.3,45.7,29.61,WSW,246,6.0,10.0,19,0.00,,,0.00,0,WeatherCatV1.11B39,2013-06-30 06:36:00,
2013-06-29 23:40:00,94.9,46.1,29.61,SW,234,4.0,8.0,19,0.00,,,0.00,0,WeatherCatV1.11B39,2013-06-30 06:40:00,
2013-06-29 23:45:00,94.9,46.1,29.61,WNW,298,2.0,6.0,19,0.00,,,0.00,0,WeatherCatV1.11B39,2013-06-30 06:45:00,
2013-06-29 23:50:00,94.5,45.8,29.62,WNW,294,1.0,4.0,19,0.00,,,0.00,0,WeatherCatV1.11B39,2013-06-30 06:50:00,
2013-06-29 23:55:00,94.2,46.9,29.62,WNW,295,1.0,2.0,20,0.00,,,0.00,0,WeatherCatV1.11B39,2013-06-30 06:55:00,